sensor_id;sensor_type;location;lat;lon;timestamp;pressure;altitude;pressure_sealevel;temperature;humidity
66801;BME280;53703;50.326;19.122;2023-05-24T00:02:58;98354.11;;;19.24;65.32
66801;BME280;53703;50.326;19.122;2023-05-24T00:05:52;98354.31;;;19.22;65.69
66801;BME280;53703;50.326;19.122;2023-05-24T00:08:47;98357.54;;;19.29;65.10
66801;BME280;53703;50.326;19.122;2023-05-24T00:11:41;98356.34;;;19.29;65.04
66801;BME280;53703;50.326;19.122;2023-05-24T00:14:35;98353.17;;;19.24;65.49
66801;BME280;53703;50.326;19.122;2023-05-24T00:17:29;98357.02;;;19.26;65.37
66801;BME280;53703;50.326;19.122;2023-05-24T00:20:23;98356.27;;;19.25;65.75
66801;BME280;53703;50.326;19.122;2023-05-24T00:23:18;98357.74;;;19.20;65.92
66801;BME280;53703;50.326;19.122;2023-05-24T00:26:12;98355.73;;;19.21;65.78
66801;BME280;53703;50.326;19.122;2023-05-24T00:29:06;98360.35;;;19.19;66.06
66801;BME280;53703;50.326;19.122;2023-05-24T00:32:00;98359.20;;;19.21;65.74
66801;BME280;53703;50.326;19.122;2023-05-24T00:34:54;98356.96;;;19.20;65.81
66801;BME280;53703;50.326;19.122;2023-05-24T00:37:49;98357.85;;;19.17;66.30
66801;BME280;53703;50.326;19.122;2023-05-24T00:40:43;98362.78;;;19.19;66.08
66801;BME280;53703;50.326;19.122;2023-05-24T00:43:47;98366.09;;;19.14;66.27
66801;BME280;53703;50.326;19.122;2023-05-24T00:46:49;98361.14;;;19.15;66.33
66801;BME280;53703;50.326;19.122;2023-05-24T00:49:44;98358.49;;;19.18;66.04
66801;BME280;53703;50.326;19.122;2023-05-24T00:52:38;98362.86;;;19.18;65.96
66801;BME280;53703;50.326;19.122;2023-05-24T00:55:34;98360.22;;;19.21;65.56
66801;BME280;53703;50.326;19.122;2023-05-24T00:58:28;98361.54;;;19.15;65.92
66801;BME280;53703;50.326;19.122;2023-05-24T01:01:23;98363.56;;;19.14;65.89
66801;BME280;53703;50.326;19.122;2023-05-24T01:04:18;98362.13;;;19.13;66.01
66801;BME280;53703;50.326;19.122;2023-05-24T01:07:23;98363.90;;;19.19;65.59
66801;BME280;53703;50.326;19.122;2023-05-24T01:10:46;98366.67;;;19.16;65.66
66801;BME280;53703;50.326;19.122;2023-05-24T01:13:51;98367.30;;;19.19;65.36
66801;BME280;53703;50.326;19.122;2023-05-24T01:16:54;98374.32;;;19.14;65.58
66801;BME280;53703;50.326;19.122;2023-05-24T01:19:56;98375.08;;;19.12;65.48
66801;BME280;53703;50.326;19.122;2023-05-24T01:23:21;98374.94;;;19.14;65.43
66801;BME280;53703;50.326;19.122;2023-05-24T01:26:34;98375.93;;;19.11;65.47
66801;BME280;53703;50.326;19.122;2023-05-24T01:29:31;98377.63;;;19.09;65.41
66801;BME280;53703;50.326;19.122;2023-05-24T01:32:27;98380.54;;;19.05;65.67
66801;BME280;53703;50.326;19.122;2023-05-24T01:35:21;98381.48;;;19.09;65.45
66801;BME280;53703;50.326;19.122;2023-05-24T01:38:16;98379.89;;;19.04;65.55
66801;BME280;53703;50.326;19.122;2023-05-24T01:41:20;98377.25;;;19.04;65.47
66801;BME280;53703;50.326;19.122;2023-05-24T01:44:22;98380.48;;;19.06;65.44
66801;BME280;53703;50.326;19.122;2023-05-24T01:47:27;98382.52;;;19.09;65.15
66801;BME280;53703;50.326;19.122;2023-05-24T01:50:30;98382.14;;;19.10;65.20
66801;BME280;53703;50.326;19.122;2023-05-24T01:53:32;98385.97;;;19.01;65.38
66801;BME280;53703;50.326;19.122;2023-05-24T01:56:28;98391.64;;;18.96;65.69
66801;BME280;53703;50.326;19.122;2023-05-24T01:59:24;98398.12;;;19.01;65.36
66801;BME280;53703;50.326;19.122;2023-05-24T02:02:38;98404.81;;;18.96;65.21
66801;BME280;53703;50.326;19.122;2023-05-24T02:05:34;98406.41;;;18.94;65.39
66801;BME280;53703;50.326;19.122;2023-05-24T02:08:27;98411.28;;;19.06;64.83
66801;BME280;53703;50.326;19.122;2023-05-24T02:11:21;98411.56;;;19.01;64.97
66801;BME280;53703;50.326;19.122;2023-05-24T02:14:15;98410.08;;;18.94;65.05
66801;BME280;53703;50.326;19.122;2023-05-24T02:17:11;98411.40;;;18.90;65.43
66801;BME280;53703;50.326;19.122;2023-05-24T02:20:07;98410.98;;;18.89;65.32
66801;BME280;53703;50.326;19.122;2023-05-24T02:23:02;98412.16;;;18.89;65.44
66801;BME280;53703;50.326;19.122;2023-05-24T02:25:57;98415.86;;;18.95;65.07
66801;BME280;53703;50.326;19.122;2023-05-24T02:28:51;98419.98;;;18.99;64.81
66801;BME280;53703;50.326;19.122;2023-05-24T02:31:44;98420.40;;;19.01;64.54
66801;BME280;53703;50.326;19.122;2023-05-24T02:34:41;98420.30;;;19.06;64.40
66801;BME280;53703;50.326;19.122;2023-05-24T02:37:35;98423.48;;;19.00;64.78
66801;BME280;53703;50.326;19.122;2023-05-24T02:40:30;98423.43;;;18.98;64.76
66801;BME280;53703;50.326;19.122;2023-05-24T02:43:23;98423.00;;;19.00;64.50
66801;BME280;53703;50.326;19.122;2023-05-24T02:46:18;98423.44;;;18.99;64.67
66801;BME280;53703;50.326;19.122;2023-05-24T02:49:12;98422.04;;;18.99;64.72
66801;BME280;53703;50.326;19.122;2023-05-24T02:52:07;98423.35;;;18.98;64.80
66801;BME280;53703;50.326;19.122;2023-05-24T02:55:01;98424.86;;;19.02;64.50
66801;BME280;53703;50.326;19.122;2023-05-24T02:57:55;98427.05;;;19.04;64.46
66801;BME280;53703;50.326;19.122;2023-05-24T03:00:49;98432.65;;;19.07;64.27
66801;BME280;53703;50.326;19.122;2023-05-24T03:03:43;98434.92;;;19.03;64.36
66801;BME280;53703;50.326;19.122;2023-05-24T03:06:38;98436.58;;;19.00;64.12
66801;BME280;53703;50.326;19.122;2023-05-24T03:09:32;98434.39;;;18.97;64.44
66801;BME280;53703;50.326;19.122;2023-05-24T03:12:26;98436.11;;;18.93;64.70
66801;BME280;53703;50.326;19.122;2023-05-24T03:15:21;98432.86;;;19.03;64.10
66801;BME280;53703;50.326;19.122;2023-05-24T03:18:15;98435.39;;;18.89;64.82
66801;BME280;53703;50.326;19.122;2023-05-24T03:21:09;98435.61;;;18.84;64.90
66801;BME280;53703;50.326;19.122;2023-05-24T03:24:03;98437.41;;;18.84;64.92
66801;BME280;53703;50.326;19.122;2023-05-24T03:26:58;98434.09;;;18.94;64.50
66801;BME280;53703;50.326;19.122;2023-05-24T03:29:52;98439.34;;;18.96;64.42
66801;BME280;53703;50.326;19.122;2023-05-24T03:32:46;98438.65;;;19.00;64.14
66801;BME280;53703;50.326;19.122;2023-05-24T03:35:41;98440.10;;;18.95;64.32
66801;BME280;53703;50.326;19.122;2023-05-24T03:38:35;98439.92;;;18.94;64.30
66801;BME280;53703;50.326;19.122;2023-05-24T03:41:29;98438.41;;;18.97;64.19
66801;BME280;53703;50.326;19.122;2023-05-24T03:44:23;98439.30;;;19.01;63.92
66801;BME280;53703;50.326;19.122;2023-05-24T03:47:17;98444.24;;;18.93;64.28
66801;BME280;53703;50.326;19.122;2023-05-24T03:50:11;98435.26;;;18.96;64.22
66801;BME280;53703;50.326;19.122;2023-05-24T03:53:05;98435.77;;;18.89;64.46
66801;BME280;53703;50.326;19.122;2023-05-24T03:55:59;98439.06;;;18.98;64.07
66801;BME280;53703;50.326;19.122;2023-05-24T03:58:54;98440.27;;;18.92;64.08
66801;BME280;53703;50.326;19.122;2023-05-24T04:01:51;98442.02;;;18.99;63.79
66801;BME280;53703;50.326;19.122;2023-05-24T04:04:46;98446.30;;;18.96;64.15
66801;BME280;53703;50.326;19.122;2023-05-24T04:07:40;98448.91;;;18.85;64.50
66801;BME280;53703;50.326;19.122;2023-05-24T04:10:35;98451.16;;;18.91;64.27
66801;BME280;53703;50.326;19.122;2023-05-24T04:13:29;98456.77;;;18.91;64.08
66801;BME280;53703;50.326;19.122;2023-05-24T04:16:23;98459.09;;;18.92;64.17
66801;BME280;53703;50.326;19.122;2023-05-24T04:19:18;98463.81;;;18.88;64.33
66801;BME280;53703;50.326;19.122;2023-05-24T04:22:12;98464.63;;;18.89;64.21
66801;BME280;53703;50.326;19.122;2023-05-24T04:25:17;98468.05;;;18.90;64.14
66801;BME280;53703;50.326;19.122;2023-05-24T04:28:11;98472.63;;;18.93;64.00
66801;BME280;53703;50.326;19.122;2023-05-24T04:31:07;98479.73;;;18.82;64.31
66801;BME280;53703;50.326;19.122;2023-05-24T04:34:02;98481.66;;;18.87;64.21
66801;BME280;53703;50.326;19.122;2023-05-24T04:36:56;98488.86;;;18.99;63.46
66801;BME280;53703;50.326;19.122;2023-05-24T04:39:49;98488.25;;;19.05;63.32
66801;BME280;53703;50.326;19.122;2023-05-24T04:42:43;98489.77;;;19.09;62.98
66801;BME280;53703;50.326;19.122;2023-05-24T04:45:37;98492.61;;;19.10;63.19
66801;BME280;53703;50.326;19.122;2023-05-24T04:48:31;98492.73;;;18.98;63.54
66801;BME280;53703;50.326;19.122;2023-05-24T04:51:25;98501.84;;;18.99;63.57
66801;BME280;53703;50.326;19.122;2023-05-24T04:54:18;98509.92;;;19.03;63.50
66801;BME280;53703;50.326;19.122;2023-05-24T04:57:12;98514.84;;;19.04;63.64
66801;BME280;53703;50.326;19.122;2023-05-24T05:00:08;98516.00;;;19.13;63.16
66801;BME280;53703;50.326;19.122;2023-05-24T05:03:03;98524.64;;;19.08;63.14
66801;BME280;53703;50.326;19.122;2023-05-24T05:05:57;98530.45;;;18.93;63.47
66801;BME280;53703;50.326;19.122;2023-05-24T05:08:51;98536.27;;;18.89;63.25
66801;BME280;53703;50.326;19.122;2023-05-24T05:11:46;98542.59;;;18.81;63.10
66801;BME280;53703;50.326;19.122;2023-05-24T05:14:40;98543.29;;;18.78;62.96
66801;BME280;53703;50.326;19.122;2023-05-24T05:17:35;98549.52;;;18.84;62.84
66801;BME280;53703;50.326;19.122;2023-05-24T05:20:28;98561.36;;;18.80;62.77
66801;BME280;53703;50.326;19.122;2023-05-24T05:23:22;98563.92;;;18.88;62.45
66801;BME280;53703;50.326;19.122;2023-05-24T05:26:17;98568.42;;;18.85;62.80
66801;BME280;53703;50.326;19.122;2023-05-24T05:29:11;98574.12;;;18.85;62.30
66801;BME280;53703;50.326;19.122;2023-05-24T05:32:05;98575.61;;;18.78;62.35
66801;BME280;53703;50.326;19.122;2023-05-24T05:34:59;98576.70;;;18.75;62.52
66801;BME280;53703;50.326;19.122;2023-05-24T05:37:53;98578.92;;;18.78;61.86
66801;BME280;53703;50.326;19.122;2023-05-24T05:40:47;98579.62;;;18.81;61.71
66801;BME280;53703;50.326;19.122;2023-05-24T05:43:41;98586.22;;;18.76;61.62
66801;BME280;53703;50.326;19.122;2023-05-24T05:46:36;98590.16;;;18.67;61.75
66801;BME280;53703;50.326;19.122;2023-05-24T05:49:30;98596.92;;;18.69;61.77
66801;BME280;53703;50.326;19.122;2023-05-24T05:52:27;98599.38;;;18.72;61.51
66801;BME280;53703;50.326;19.122;2023-05-24T05:55:22;98601.98;;;18.85;61.08
66801;BME280;53703;50.326;19.122;2023-05-24T05:58:16;98608.51;;;18.80;61.52
66801;BME280;53703;50.326;19.122;2023-05-24T06:01:10;98612.18;;;18.75;61.50
66801;BME280;53703;50.326;19.122;2023-05-24T06:04:04;98617.45;;;18.68;61.29
66801;BME280;53703;50.326;19.122;2023-05-24T06:06:57;98620.34;;;18.58;61.46
66801;BME280;53703;50.326;19.122;2023-05-24T06:09:51;98624.05;;;18.64;61.08
66801;BME280;53703;50.326;19.122;2023-05-24T06:12:45;98626.53;;;18.69;61.08
66801;BME280;53703;50.326;19.122;2023-05-24T06:15:39;98632.83;;;18.55;61.06
66801;BME280;53703;50.326;19.122;2023-05-24T06:18:18;98635.91;;;18.55;61.12
66801;BME280;53703;50.326;19.122;2023-05-24T06:21:14;98642.95;;;18.47;61.16
66801;BME280;53703;50.326;19.122;2023-05-24T06:24:08;98646.48;;;18.49;60.98
66801;BME280;53703;50.326;19.122;2023-05-24T06:27:03;98650.22;;;18.48;60.93
66801;BME280;53703;50.326;19.122;2023-05-24T06:29:57;98656.36;;;18.47;61.09
66801;BME280;53703;50.326;19.122;2023-05-24T06:32:51;98660.60;;;18.46;60.94
66801;BME280;53703;50.326;19.122;2023-05-24T06:35:45;98665.34;;;18.46;60.92
66801;BME280;53703;50.326;19.122;2023-05-24T06:38:39;98672.67;;;18.48;60.89
66801;BME280;53703;50.326;19.122;2023-05-24T06:41:18;98674.27;;;18.38;61.06
66801;BME280;53703;50.326;19.122;2023-05-24T06:44:12;98678.44;;;18.34;60.91
66801;BME280;53703;50.326;19.122;2023-05-24T06:47:08;98683.16;;;18.42;60.67
66801;BME280;53703;50.326;19.122;2023-05-24T06:50:02;98683.77;;;18.47;60.50
66801;BME280;53703;50.326;19.122;2023-05-24T06:52:56;98681.11;;;18.37;60.56
66801;BME280;53703;50.326;19.122;2023-05-24T06:55:50;98689.33;;;18.34;60.51
66801;BME280;53703;50.326;19.122;2023-05-24T06:58:48;98692.44;;;18.21;60.81
66801;BME280;53703;50.326;19.122;2023-05-24T07:01:42;98695.89;;;18.12;60.97
66801;BME280;53703;50.326;19.122;2023-05-24T07:04:37;98698.97;;;18.29;60.53
66801;BME280;53703;50.326;19.122;2023-05-24T07:07:36;98701.00;;;18.36;60.27
66801;BME280;53703;50.326;19.122;2023-05-24T07:10:30;98703.73;;;18.32;60.48
66801;BME280;53703;50.326;19.122;2023-05-24T07:13:24;98706.98;;;18.25;60.66
66801;BME280;53703;50.326;19.122;2023-05-24T07:16:18;98713.52;;;18.27;60.73
66801;BME280;53703;50.326;19.122;2023-05-24T07:19:13;98715.52;;;18.23;60.90
66801;BME280;53703;50.326;19.122;2023-05-24T07:22:07;98720.56;;;18.28;60.87
66801;BME280;53703;50.326;19.122;2023-05-24T07:25:02;98722.27;;;18.29;60.78
66801;BME280;53703;50.326;19.122;2023-05-24T07:27:56;98722.21;;;18.30;60.71
66801;BME280;53703;50.326;19.122;2023-05-24T07:30:51;98730.36;;;18.25;60.84
66801;BME280;53703;50.326;19.122;2023-05-24T07:33:47;98730.77;;;18.32;60.62
66801;BME280;53703;50.326;19.122;2023-05-24T07:36:42;98738.80;;;18.14;60.98
66801;BME280;53703;50.326;19.122;2023-05-24T07:39:37;98735.28;;;18.23;60.67
66801;BME280;53703;50.326;19.122;2023-05-24T07:42:32;98740.19;;;18.16;60.65
66801;BME280;53703;50.326;19.122;2023-05-24T07:45:28;98743.47;;;18.20;60.57
66801;BME280;53703;50.326;19.122;2023-05-24T07:48:23;98746.98;;;18.33;60.16
66801;BME280;53703;50.326;19.122;2023-05-24T07:51:17;98748.98;;;18.31;60.21
66801;BME280;53703;50.326;19.122;2023-05-24T07:54:34;98747.37;;;18.21;60.23
66801;BME280;53703;50.326;19.122;2023-05-24T07:57:28;98754.27;;;18.41;59.60
66801;BME280;53703;50.326;19.122;2023-05-24T08:00:23;98752.94;;;18.28;60.03
66801;BME280;53703;50.326;19.122;2023-05-24T08:03:17;98757.46;;;18.21;60.03
66801;BME280;53703;50.326;19.122;2023-05-24T08:06:11;98760.48;;;18.17;60.29
66801;BME280;53703;50.326;19.122;2023-05-24T08:09:06;98762.76;;;18.13;60.59
66801;BME280;53703;50.326;19.122;2023-05-24T08:12:00;98763.95;;;18.22;60.57
66801;BME280;53703;50.326;19.122;2023-05-24T08:15:13;98760.50;;;18.12;60.68
66801;BME280;53703;50.326;19.122;2023-05-24T08:18:08;98766.39;;;18.30;60.07
66801;BME280;53703;50.326;19.122;2023-05-24T08:21:02;98769.20;;;18.28;59.79
66801;BME280;53703;50.326;19.122;2023-05-24T08:23:56;98773.20;;;18.30;59.76
66801;BME280;53703;50.326;19.122;2023-05-24T08:26:51;98780.79;;;18.30;59.27
66801;BME280;53703;50.326;19.122;2023-05-24T08:29:46;98784.52;;;18.18;59.45
66801;BME280;53703;50.326;19.122;2023-05-24T08:32:40;98789.42;;;18.21;59.24
66801;BME280;53703;50.326;19.122;2023-05-24T08:35:34;98792.34;;;18.34;58.84
66801;BME280;53703;50.326;19.122;2023-05-24T08:38:28;98800.09;;;18.24;59.65
66801;BME280;53703;50.326;19.122;2023-05-24T08:41:23;98801.86;;;18.17;59.77
66801;BME280;53703;50.326;19.122;2023-05-24T08:44:16;98808.67;;;18.37;58.90
66801;BME280;53703;50.326;19.122;2023-05-24T08:47:13;98815.06;;;18.26;58.72
66801;BME280;53703;50.326;19.122;2023-05-24T08:50:09;98818.69;;;18.26;58.59
66801;BME280;53703;50.326;19.122;2023-05-24T08:53:06;98823.80;;;18.23;58.57
66801;BME280;53703;50.326;19.122;2023-05-24T08:56:01;98829.09;;;18.33;58.11
66801;BME280;53703;50.326;19.122;2023-05-24T08:58:55;98829.34;;;18.26;58.03
66801;BME280;53703;50.326;19.122;2023-05-24T09:01:53;98829.33;;;18.20;57.91
66801;BME280;53703;50.326;19.122;2023-05-24T09:04:49;98834.34;;;18.32;58.08
66801;BME280;53703;50.326;19.122;2023-05-24T09:07:46;98834.41;;;18.37;57.71
66801;BME280;53703;50.326;19.122;2023-05-24T09:10:40;98838.61;;;18.21;57.83
66801;BME280;53703;50.326;19.122;2023-05-24T09:13:48;98842.73;;;18.15;57.59
66801;BME280;53703;50.326;19.122;2023-05-24T09:16:42;98846.98;;;18.07;57.72
66801;BME280;53703;50.326;19.122;2023-05-24T09:19:37;98850.42;;;18.16;57.36
66801;BME280;53703;50.326;19.122;2023-05-24T09:22:32;98849.27;;;18.02;57.61
66801;BME280;53703;50.326;19.122;2023-05-24T09:25:31;98858.33;;;18.02;57.43
66801;BME280;53703;50.326;19.122;2023-05-24T09:28:25;98861.83;;;17.98;57.61
66801;BME280;53703;50.326;19.122;2023-05-24T09:31:18;98865.77;;;18.17;57.24
66801;BME280;53703;50.326;19.122;2023-05-24T09:34:24;98870.72;;;18.26;57.66
66801;BME280;53703;50.326;19.122;2023-05-24T09:37:20;98872.28;;;18.31;57.46
66801;BME280;53703;50.326;19.122;2023-05-24T09:40:20;98876.86;;;18.23;57.35
66801;BME280;53703;50.326;19.122;2023-05-24T09:43:14;98881.44;;;18.16;57.22
66801;BME280;53703;50.326;19.122;2023-05-24T09:46:08;98883.27;;;18.04;57.37
66801;BME280;53703;50.326;19.122;2023-05-24T09:49:02;98887.46;;;18.07;57.29
66801;BME280;53703;50.326;19.122;2023-05-24T09:51:58;98888.70;;;18.30;57.24
66801;BME280;53703;50.326;19.122;2023-05-24T09:54:46;98885.23;;;18.49;57.06
66801;BME280;53703;50.326;19.122;2023-05-24T09:57:43;98885.45;;;18.48;57.70
66801;BME280;53703;50.326;19.122;2023-05-24T10:00:38;98882.84;;;18.40;57.87
66801;BME280;53703;50.326;19.122;2023-05-24T10:03:34;98883.87;;;18.43;57.42
66801;BME280;53703;50.326;19.122;2023-05-24T10:06:29;98881.16;;;18.50;57.57
66801;BME280;53703;50.326;19.122;2023-05-24T10:09:25;98881.59;;;18.44;57.14
66801;BME280;53703;50.326;19.122;2023-05-24T10:12:26;98879.39;;;18.34;58.13
66801;BME280;53703;50.326;19.122;2023-05-24T10:15:21;98885.70;;;17.57;58.34
66801;BME280;53703;50.326;19.122;2023-05-24T10:18:15;98893.13;;;17.42;58.31
66801;BME280;53703;50.326;19.122;2023-05-24T10:21:10;98894.39;;;17.26;58.63
66801;BME280;53703;50.326;19.122;2023-05-24T10:24:06;98892.17;;;17.30;58.39
66801;BME280;53703;50.326;19.122;2023-05-24T10:27:06;98895.52;;;17.43;58.31
66801;BME280;53703;50.326;19.122;2023-05-24T10:30:10;98898.52;;;17.84;57.57
66801;BME280;53703;50.326;19.122;2023-05-24T10:33:07;98907.23;;;18.03;57.80
66801;BME280;53703;50.326;19.122;2023-05-24T10:36:03;98909.55;;;18.14;57.43
66801;BME280;53703;50.326;19.122;2023-05-24T10:39:01;98910.73;;;18.12;57.34
66801;BME280;53703;50.326;19.122;2023-05-24T10:42:02;98914.00;;;18.17;57.16
66801;BME280;53703;50.326;19.122;2023-05-24T10:45:00;98911.10;;;18.15;57.27
66801;BME280;53703;50.326;19.122;2023-05-24T10:48:37;98915.10;;;18.30;56.68
66801;BME280;53703;50.326;19.122;2023-05-24T10:51:36;98917.23;;;18.11;57.33
66801;BME280;53703;50.326;19.122;2023-05-24T10:54:31;98918.09;;;18.03;57.37
66801;BME280;53703;50.326;19.122;2023-05-24T10:57:27;98918.13;;;18.08;57.52
66801;BME280;53703;50.326;19.122;2023-05-24T11:00:34;98924.34;;;18.11;57.46
66801;BME280;53703;50.326;19.122;2023-05-24T11:03:37;98923.92;;;18.12;57.40
66801;BME280;53703;50.326;19.122;2023-05-24T11:09:47;98922.76;;;18.10;57.16
66801;BME280;53703;50.326;19.122;2023-05-24T11:13:08;98923.66;;;18.05;57.43
66801;BME280;53703;50.326;19.122;2023-05-24T11:16:02;98918.05;;;18.28;56.78
66801;BME280;53703;50.326;19.122;2023-05-24T11:18:58;98919.27;;;18.34;56.15
66801;BME280;53703;50.326;19.122;2023-05-24T11:21:58;98916.73;;;18.36;56.43
66801;BME280;53703;50.326;19.122;2023-05-24T11:24:53;98914.49;;;18.43;56.43
66801;BME280;53703;50.326;19.122;2023-05-24T11:27:49;98913.27;;;18.36;56.88
66801;BME280;53703;50.326;19.122;2023-05-24T11:30:45;98909.08;;;18.36;57.12
66801;BME280;53703;50.326;19.122;2023-05-24T11:33:43;98911.03;;;18.30;57.45
66801;BME280;53703;50.326;19.122;2023-05-24T11:36:37;98916.08;;;18.48;56.47
66801;BME280;53703;50.326;19.122;2023-05-24T11:39:35;98914.69;;;18.36;57.72
66801;BME280;53703;50.326;19.122;2023-05-24T11:42:30;98914.67;;;18.28;57.96
66801;BME280;53703;50.326;19.122;2023-05-24T11:45:24;98911.38;;;18.21;57.54
66801;BME280;53703;50.326;19.122;2023-05-24T11:48:19;98911.49;;;18.18;57.90
66801;BME280;53703;50.326;19.122;2023-05-24T11:51:13;98910.75;;;18.19;58.04
66801;BME280;53703;50.326;19.122;2023-05-24T11:54:08;98916.27;;;18.29;57.85
66801;BME280;53703;50.326;19.122;2023-05-24T11:57:03;98916.32;;;18.31;57.34
66801;BME280;53703;50.326;19.122;2023-05-24T11:59:43;98918.91;;;18.45;56.93
66801;BME280;53703;50.326;19.122;2023-05-24T12:02:39;98918.05;;;18.35;57.51
66801;BME280;53703;50.326;19.122;2023-05-24T12:05:34;98920.61;;;18.31;57.44
66801;BME280;53703;50.326;19.122;2023-05-24T12:08:29;98913.39;;;18.28;57.50
66801;BME280;53703;50.326;19.122;2023-05-24T12:11:23;98909.95;;;18.28;57.55
66801;BME280;53703;50.326;19.122;2023-05-24T12:14:21;98912.73;;;18.34;57.63
66801;BME280;53703;50.326;19.122;2023-05-24T12:17:36;98913.70;;;18.35;57.56
66801;BME280;53703;50.326;19.122;2023-05-24T12:20:31;98911.98;;;18.28;57.72
66801;BME280;53703;50.326;19.122;2023-05-24T12:23:27;98912.62;;;18.41;57.18
66801;BME280;53703;50.326;19.122;2023-05-24T12:26:24;98913.95;;;18.38;57.30
66801;BME280;53703;50.326;19.122;2023-05-24T12:29:19;98911.65;;;18.38;57.34
66801;BME280;53703;50.326;19.122;2023-05-24T12:32:14;98912.89;;;18.54;56.46
66801;BME280;53703;50.326;19.122;2023-05-24T12:35:11;98910.88;;;18.58;56.34
66801;BME280;53703;50.326;19.122;2023-05-24T12:38:08;98909.39;;;18.41;57.12
66801;BME280;53703;50.326;19.122;2023-05-24T12:41:02;98915.72;;;18.49;56.85
66801;BME280;53703;50.326;19.122;2023-05-24T12:44:05;98919.06;;;18.42;57.45
66801;BME280;53703;50.326;19.122;2023-05-24T12:47:03;98919.65;;;18.54;57.87
66801;BME280;53703;50.326;19.122;2023-05-24T12:49:58;98916.02;;;18.64;56.93
66801;BME280;53703;50.326;19.122;2023-05-24T12:52:53;98915.06;;;18.66;56.49
66801;BME280;53703;50.326;19.122;2023-05-24T12:55:48;98916.38;;;18.70;56.13
66801;BME280;53703;50.326;19.122;2023-05-24T12:58:43;98915.82;;;18.73;56.00
66801;BME280;53703;50.326;19.122;2023-05-24T13:01:39;98915.27;;;18.63;56.96
66801;BME280;53703;50.326;19.122;2023-05-24T13:04:34;98916.69;;;18.30;59.07
66801;BME280;53703;50.326;19.122;2023-05-24T13:07:28;98914.92;;;18.19;60.08
66801;BME280;53703;50.326;19.122;2023-05-24T13:10:08;98913.69;;;18.38;59.11
66801;BME280;53703;50.326;19.122;2023-05-24T13:13:02;98917.92;;;18.59;57.58
66801;BME280;53703;50.326;19.122;2023-05-24T13:15:39;98919.19;;;18.67;57.23
66801;BME280;53703;50.326;19.122;2023-05-24T13:18:37;98921.36;;;18.63;57.79
66801;BME280;53703;50.326;19.122;2023-05-24T13:21:30;98919.16;;;18.66;57.86
66801;BME280;53703;50.326;19.122;2023-05-24T13:24:30;98914.10;;;18.74;56.48
66801;BME280;53703;50.326;19.122;2023-05-24T13:27:25;98916.41;;;18.74;56.23
66801;BME280;53703;50.326;19.122;2023-05-24T13:30:19;98915.15;;;18.72;56.80
66801;BME280;53703;50.326;19.122;2023-05-24T13:33:19;98913.04;;;18.62;58.11
66801;BME280;53703;50.326;19.122;2023-05-24T13:36:13;98910.81;;;18.56;57.90
66801;BME280;53703;50.326;19.122;2023-05-24T13:39:07;98917.49;;;18.58;57.96
66801;BME280;53703;50.326;19.122;2023-05-24T13:42:08;98918.29;;;18.58;58.01
66801;BME280;53703;50.326;19.122;2023-05-24T13:45:04;98918.66;;;18.57;57.85
66801;BME280;53703;50.326;19.122;2023-05-24T13:47:58;98921.25;;;18.56;57.75
66801;BME280;53703;50.326;19.122;2023-05-24T13:50:56;98925.67;;;18.56;57.69
66801;BME280;53703;50.326;19.122;2023-05-24T13:53:50;98920.11;;;18.58;57.77
66801;BME280;53703;50.326;19.122;2023-05-24T13:56:47;98922.02;;;18.58;57.39
66801;BME280;53703;50.326;19.122;2023-05-24T13:59:41;98919.22;;;18.60;56.70
66801;BME280;53703;50.326;19.122;2023-05-24T14:02:35;98920.54;;;18.67;56.62
66801;BME280;53703;50.326;19.122;2023-05-24T14:05:32;98921.45;;;18.61;56.34
66801;BME280;53703;50.326;19.122;2023-05-24T14:08:26;98918.35;;;18.50;56.88
66801;BME280;53703;50.326;19.122;2023-05-24T14:11:20;98915.92;;;18.23;58.38
66801;BME280;53703;50.326;19.122;2023-05-24T14:14:10;98913.38;;;18.20;58.76
66801;BME280;53703;50.326;19.122;2023-05-24T14:17:08;98917.51;;;18.14;58.57
66801;BME280;53703;50.326;19.122;2023-05-24T14:20:07;98912.34;;;18.15;58.35
66801;BME280;53703;50.326;19.122;2023-05-24T14:23:01;98910.95;;;18.26;57.99
66801;BME280;53703;50.326;19.122;2023-05-24T14:25:56;98912.77;;;18.53;57.28
66801;BME280;53703;50.326;19.122;2023-05-24T14:28:50;98910.81;;;18.54;57.10
66801;BME280;53703;50.326;19.122;2023-05-24T14:31:46;98909.27;;;18.71;56.23
66801;BME280;53703;50.326;19.122;2023-05-24T14:34:40;98910.39;;;18.56;56.91
66801;BME280;53703;50.326;19.122;2023-05-24T14:37:34;98907.96;;;18.43;57.52
66801;BME280;53703;50.326;19.122;2023-05-24T14:40:32;98911.55;;;18.22;58.38
66801;BME280;53703;50.326;19.122;2023-05-24T14:43:33;98910.52;;;18.20;58.56
66801;BME280;53703;50.326;19.122;2023-05-24T14:46:29;98907.02;;;18.24;58.09
66801;BME280;53703;50.326;19.122;2023-05-24T14:49:23;98907.27;;;18.44;57.74
66801;BME280;53703;50.326;19.122;2023-05-24T14:52:17;98908.77;;;18.54;56.75
66801;BME280;53703;50.326;19.122;2023-05-24T14:55:12;98909.23;;;18.59;55.98
66801;BME280;53703;50.326;19.122;2023-05-24T14:58:06;98907.79;;;18.63;55.69
66801;BME280;53703;50.326;19.122;2023-05-24T15:01:03;98910.80;;;18.51;56.78
66801;BME280;53703;50.326;19.122;2023-05-24T15:03:58;98912.05;;;18.51;56.96
66801;BME280;53703;50.326;19.122;2023-05-24T15:06:53;98911.44;;;18.56;56.71
66801;BME280;53703;50.326;19.122;2023-05-24T15:09:46;98910.71;;;18.58;56.63
66801;BME280;53703;50.326;19.122;2023-05-24T15:12:40;98914.48;;;18.47;56.87
66801;BME280;53703;50.326;19.122;2023-05-24T15:15:34;98916.61;;;18.48;56.97
66801;BME280;53703;50.326;19.122;2023-05-24T15:18:30;98918.61;;;18.43;57.27
66801;BME280;53703;50.326;19.122;2023-05-24T15:21:24;98918.05;;;18.45;56.87
66801;BME280;53703;50.326;19.122;2023-05-24T15:24:18;98921.94;;;18.36;56.81